Time;durP1;ratioP1;P1;durP2;ratioP2;P2;SDS_P1;SDS_P2;PMS_P1;PMS_P2;Temp;Humidity;BMP_temperature;BMP_pressure;BME280_temperature;BME280_humidity;BME280_pressure;Samples;Min_cycle;Max_cycle;Signal;HPM_P1;HPM_P2
2022/01/08 00:01:59;;;;;;;9.75;1.27;;;5.10;99.90;;;;;;6277421;22;20020;-88
2022/01/08 00:04:26;;;;;;;3.05;1.50;;;5.10;99.90;;;;;;6225118;22;20029;-88
2022/01/08 00:06:53;;;;;;;4.45;0.52;;;5.10;99.90;;;;;;6249747;22;20061;-88
2022/01/08 00:09:20;;;;;;;15.68;2.13;;;5.10;99.90;;;;;;6249974;22;20022;-89
2022/01/08 00:11:47;;;;;;;5.57;1.02;;;5.10;99.90;;;;;;6224968;22;20015;-87
2022/01/08 00:14:15;;;;;;;5.95;1.02;;;5.10;99.90;;;;;;6250375;22;20035;-88
2022/01/08 00:16:42;;;;;;;10.43;0.95;;;5.10;99.90;;;;;;6276957;22;20026;-89
2022/01/08 00:19:08;;;;;;;4.88;0.95;;;5.10;99.90;;;;;;6249991;22;20019;-89
2022/01/08 00:21:35;;;;;;;8.07;1.63;;;5.10;99.90;;;;;;6250241;22;20077;-88
2022/01/08 00:24:02;;;;;;;4.82;0.77;;;5.00;99.90;;;;;;6225019;22;20024;-90
2022/01/08 00:26:29;;;;;;;10.90;1.10;;;5.00;99.90;;;;;;6276982;22;20419;-88
2022/01/08 00:28:56;;;;;;;2.90;0.80;;;5.00;99.90;;;;;;6249593;22;20106;-90
2022/01/08 00:31:23;;;;;;;3.72;1.10;;;5.00;99.90;;;;;;6276903;22;20015;-89
2022/01/08 00:33:51;;;;;;;5.07;1.00;;;5.00;99.90;;;;;;6249505;22;20466;-87
2022/01/08 00:36:21;;;;;;;4.55;1.02;;;5.00;99.90;;;;;;6249313;22;20115;-90
2022/01/08 00:38:48;;;;;;;6.10;1.08;;;5.00;99.90;;;;;;6249505;22;20328;-87
2022/01/08 00:41:14;;;;;;;3.08;0.70;;;5.00;99.90;;;;;;6276760;22;20095;-89
2022/01/08 00:43:41;;;;;;;4.10;0.77;;;5.00;99.90;;;;;;6277418;22;20542;-89
2022/01/08 00:46:08;;;;;;;5.50;1.27;;;5.00;99.90;;;;;;6224832;22;20019;-90
2022/01/08 00:48:35;;;;;;;0.90;0.52;;;5.00;99.90;;;;;;6249354;22;20098;-89
2022/01/08 00:51:02;;;;;;;4.63;0.80;;;5.00;99.90;;;;;;6276704;22;20011;-89
2022/01/08 00:53:29;;;;;;;10.52;1.10;;;5.00;99.90;;;;;;6276938;22;20447;-89
2022/01/08 00:55:55;;;;;;;10.13;1.40;;;5.00;99.90;;;;;;6249660;22;20023;-89
2022/01/08 00:58:23;;;;;;;2.70;0.75;;;5.00;99.90;;;;;;6250154;22;20098;-89
2022/01/08 01:00:50;;;;;;;6.00;1.13;;;5.00;99.90;;;;;;6277020;22;20026;-88
2022/01/08 01:03:16;;;;;;;3.85;0.90;;;5.00;99.90;;;;;;6250279;22;20447;-89
2022/01/08 01:05:43;;;;;;;5.63;0.98;;;5.00;99.90;;;;;;6249759;22;20020;-87
2022/01/08 01:08:10;;;;;;;9.07;1.60;;;4.90;99.90;;;;;;6249647;22;20020;-91
2022/01/08 01:10:37;;;;;;;15.00;1.30;;;4.90;99.90;;;;;;6250370;22;20018;-87
2022/01/08 01:13:04;;;;;;;9.40;1.77;;;4.90;99.90;;;;;;6278818;22;20427;-88
2022/01/08 01:15:31;;;;;;;9.07;0.85;;;4.90;99.90;;;;;;6278517;22;20023;-87
2022/01/08 01:17:57;;;;;;;8.93;1.88;;;4.90;99.90;;;;;;6278810;22;20018;-88
2022/01/08 01:20:25;;;;;;;7.03;1.00;;;4.90;99.90;;;;;;6278607;22;20091;-89
2022/01/08 01:25:25;;;;;;;7.53;1.17;;;4.90;99.90;;;;;;6278952;22;20015;-88
2022/01/08 01:27:59;;;;;;;4.57;1.30;;;4.90;99.90;;;;;;6279044;22;20015;-87
2022/01/08 01:41:10;;;;;;;7.18;1.00;;;4.90;99.90;;;;;;6251436;22;20081;-88
2022/01/08 01:47:02;;;;;;;5.40;0.75;;;4.90;99.90;;;;;;6251411;22;20439;-89
2022/01/08 01:49:32;;;;;;;5.82;0.77;;;4.90;99.90;;;;;;6225823;22;20423;-88
2022/01/08 01:52:00;;;;;;;3.95;1.15;;;4.90;99.90;;;;;;6226105;22;20026;-87
2022/01/08 01:54:30;;;;;;;8.95;0.75;;;4.90;99.90;;;;;;6278328;22;20118;-87
2022/01/08 01:56:59;;;;;;;5.10;0.63;;;4.90;99.90;;;;;;6251542;22;20031;-90
2022/01/08 01:59:27;;;;;;;7.18;0.88;;;4.90;99.90;;;;;;6250758;22;20023;-90
2022/01/08 02:01:54;;;;;;;8.55;0.63;;;4.90;99.90;;;;;;6278256;22;20019;-87
2022/01/08 02:04:22;;;;;;;7.18;0.80;;;4.90;99.90;;;;;;6250920;22;20069;-89
2022/01/08 02:06:49;;;;;;;3.42;0.73;;;4.90;99.90;;;;;;6250288;22;20107;-87
2022/01/08 02:09:16;;;;;;;6.53;0.70;;;4.90;99.90;;;;;;6225712;22;20016;-90
2022/01/08 02:11:55;;;;;;;2.35;0.77;;;4.90;99.90;;;;;;6278080;22;20407;-89
2022/01/08 02:14:23;;;;;;;4.70;0.52;;;4.90;99.90;;;;;;6278055;22;20095;-89
2022/01/08 02:16:50;;;;;;;3.63;0.75;;;4.90;99.90;;;;;;6251052;22;20027;-88
2022/01/08 02:19:16;;;;;;;3.60;0.75;;;4.80;99.90;;;;;;6225571;22;20416;-90
2022/01/08 02:21:57;;;;;;;11.45;1.10;;;4.80;99.90;;;;;;6277916;22;20020;-88
2022/01/08 02:24:27;;;;;;;4.53;0.68;;;4.80;99.90;;;;;;6251271;22;20050;-88
2022/01/08 02:26:54;;;;;;;3.65;0.70;;;4.80;99.90;;;;;;6250533;22;20012;-89
2022/01/08 02:29:23;;;;;;;4.97;0.70;;;4.80;99.90;;;;;;6250365;22;20447;-88
2022/01/08 02:32:07;;;;;;;3.80;0.60;;;4.80;99.90;;;;;;6250958;22;20039;-89
2022/01/08 02:34:37;;;;;;;6.80;1.05;;;4.80;99.90;;;;;;6250759;22;20343;-90
2022/01/08 02:37:05;;;;;;;4.93;0.57;;;4.80;99.90;;;;;;6277514;22;20026;-87
2022/01/08 02:39:38;;;;;;;8.85;1.65;;;4.80;99.90;;;;;;6250688;22;20019;-88
2022/01/08 02:42:12;;;;;;;7.03;1.52;;;4.80;99.90;;;;;;6277733;22;20066;-89
2022/01/08 02:44:41;;;;;;;2.97;0.60;;;4.80;99.90;;;;;;6278590;22;20019;-90
2022/01/08 02:47:12;;;;;;;4.75;0.73;;;4.80;99.90;;;;;;6250562;22;20016;-89
2022/01/08 02:49:39;;;;;;;3.33;0.43;;;4.80;99.90;;;;;;6250479;22;20023;-90
2022/01/08 02:52:07;;;;;;;2.25;0.75;;;4.80;99.90;;;;;;6250726;22;20134;-88
2022/01/08 02:54:34;;;;;;;2.35;0.75;;;4.80;99.90;;;;;;6250544;22;20039;-89
2022/01/08 02:57:01;;;;;;;5.55;1.27;;;4.70;99.90;;;;;;6250941;22;20020;-89
2022/01/08 02:59:28;;;;;;;3.22;0.43;;;4.80;99.90;;;;;;6225822;22;20031;-88
2022/01/08 03:01:55;;;;;;;4.70;1.50;;;4.80;99.90;;;;;;6250748;22;20052;-87
2022/01/08 03:04:22;;;;;;;1.95;0.80;;;4.80;99.90;;;;;;6277522;22;20025;-87
2022/01/08 03:06:49;;;;;;;5.53;0.68;;;4.80;99.90;;;;;;6225161;22;20051;-88
2022/01/08 03:09:16;;;;;;;2.30;0.63;;;4.80;99.90;;;;;;6250238;22;20042;-87
2022/01/08 03:11:43;;;;;;;5.72;0.50;;;4.80;99.90;;;;;;6250608;22;20095;-88
2022/01/08 03:14:10;;;;;;;2.72;0.60;;;4.80;99.90;;;;;;6250110;22;20020;-86
2022/01/08 03:16:37;;;;;;;5.20;0.80;;;4.80;99.90;;;;;;6250243;22;20427;-88
2022/01/08 03:19:10;;;;;;;2.42;0.88;;;4.80;99.90;;;;;;6249978;22;20023;-88
2022/01/08 03:21:44;;;;;;;3.60;0.68;;;4.80;99.90;;;;;;6250462;22;20046;-90
2022/01/08 03:24:15;;;;;;;;;;;4.80;99.90;;;;;;6251079;22;20103;-89
2022/01/08 03:26:42;;;;;;;7.95;0.55;;;4.80;99.90;;;;;;6277766;22;19993;-89
2022/01/08 03:29:09;;;;;;;5.57;0.90;;;4.70;99.90;;;;;;6224977;22;20016;-87
2022/01/08 03:31:36;;;;;;;1.55;0.50;;;4.70;99.90;;;;;;6250435;22;20016;-90
2022/01/08 03:34:05;;;;;;;8.02;0.70;;;4.70;99.90;;;;;;6250431;22;20043;-89
2022/01/08 03:36:32;;;;;;;4.15;0.60;;;4.70;99.90;;;;;;6250309;22;20019;-89
2022/01/08 03:38:59;;;;;;;2.05;0.38;;;4.60;99.90;;;;;;6276617;22;20027;-88
2022/01/08 03:41:26;;;;;;;2.60;0.65;;;4.70;99.90;;;;;;6225006;22;20325;-90
2022/01/08 03:43:53;;;;;;;3.10;0.47;;;4.70;99.90;;;;;;6250351;22;20016;-89
2022/01/08 03:46:21;;;;;;;1.85;0.63;;;4.70;99.90;;;;;;6277524;22;20070;-89
2022/01/08 03:51:28;;;;;;;1.73;0.50;;;4.60;99.90;;;;;;6277343;22;20344;-89
2022/01/08 03:53:57;;;;;;;4.32;0.43;;;4.60;99.90;;;;;;6249649;22;20491;-89
2022/01/08 03:56:25;;;;;;;1.35;0.60;;;4.70;99.90;;;;;;6250168;22;20431;-87
2022/01/08 03:58:52;;;;;;;2.42;0.32;;;4.60;99.90;;;;;;6249915;22;20011;-89
2022/01/08 04:01:18;;;;;;;7.57;0.40;;;4.60;99.90;;;;;;6277003;22;20016;-88
2022/01/08 04:03:45;;;;;;;7.45;0.85;;;4.60;99.90;;;;;;6250059;22;20012;-87
2022/01/08 04:06:12;;;;;;;7.53;0.88;;;4.60;99.90;;;;;;6277105;22;20374;-87
2022/01/08 04:08:39;;;;;;;6.30;0.98;;;4.50;99.90;;;;;;6276709;22;20435;-87
2022/01/08 04:11:06;;;;;;;4.80;0.63;;;4.50;99.90;;;;;;6225556;22;20046;-88
2022/01/08 04:13:36;;;;;;;1.73;0.50;;;4.50;99.90;;;;;;6250054;22;20011;-89
2022/01/08 04:16:13;;;;;;;8.68;1.75;;;4.50;99.90;;;;;;6277251;22;20016;-89
2022/01/08 04:18:40;;;;;;;5.57;1.00;;;4.50;99.90;;;;;;6249458;22;20026;-88
2022/01/08 04:23:43;;;;;;;3.13;0.65;;;4.50;99.90;;;;;;6250113;22;20073;-90
2022/01/08 04:26:10;;;;;;;6.88;0.90;;;4.50;99.90;;;;;;6224408;22;20091;-88
2022/01/08 04:28:37;;;;;;;1.98;0.50;;;4.50;99.90;;;;;;6249367;22;20447;-89
2022/01/08 04:31:04;;;;;;;4.05;0.85;;;4.50;99.90;;;;;;6249874;22;20015;-87
2022/01/08 04:33:31;;;;;;;1.83;0.45;;;4.50;99.90;;;;;;6250101;22;20054;-88
2022/01/08 04:35:58;;;;;;;4.65;0.60;;;4.60;99.90;;;;;;6249899;22;20386;-90
2022/01/08 04:38:25;;;;;;;2.13;0.60;;;4.50;99.90;;;;;;6249545;22;20517;-89
2022/01/08 04:40:51;;;;;;;6.75;0.88;;;4.50;99.90;;;;;;6249518;22;20459;-88
2022/01/08 04:43:20;;;;;;;3.75;0.70;;;4.50;99.90;;;;;;6249744;22;20024;-87
2022/01/08 04:45:49;;;;;;;4.43;1.17;;;4.50;99.90;;;;;;6225779;22;20447;-88
2022/01/08 04:48:17;;;;;;;4.25;1.73;;;4.50;99.90;;;;;;6278477;22;20051;-88
2022/01/08 04:50:49;;;;;;;2.97;0.50;;;4.50;99.90;;;;;;6227583;22;20015;-89
2022/01/08 04:53:16;;;;;;;3.35;0.65;;;4.40;99.90;;;;;;6252107;22;20016;-90
2022/01/08 04:55:43;;;;;;;5.53;0.80;;;4.40;99.90;;;;;;6252141;22;20019;-89
2022/01/08 04:58:10;;;;;;;1.98;0.35;;;4.40;99.90;;;;;;6251222;22;20051;-90
2022/01/08 05:00:37;;;;;;;3.80;0.50;;;4.40;99.90;;;;;;6251578;22;20020;-89
2022/01/08 05:03:04;;;;;;;3.58;0.47;;;4.40;99.90;;;;;;6278574;22;20443;-87
2022/01/08 05:05:31;;;;;;;1.13;0.30;;;4.40;99.90;;;;;;6278757;22;20347;-87
2022/01/08 05:07:58;;;;;;;5.00;0.28;;;4.40;99.90;;;;;;6251402;22;20500;-89
2022/01/08 05:10:25;;;;;;;1.75;0.47;;;4.40;99.90;;;;;;6279023;22;20022;-89
2022/01/08 05:12:52;;;;;;;7.47;0.52;;;4.40;99.90;;;;;;6251740;22;20122;-88
2022/01/08 05:15:19;;;;;;;2.63;0.55;;;4.40;99.90;;;;;;6251625;22;20069;-89
2022/01/08 05:17:53;;;;;;;1.95;0.38;;;4.40;99.90;;;;;;6278712;22;20047;-89
2022/01/08 05:20:20;;;;;;;2.67;0.85;;;4.40;99.90;;;;;;6225700;22;20047;-87
2022/01/08 05:25:19;;;;;;;2.00;0.40;;;4.40;99.90;;;;;;6278432;22;20103;-87
2022/01/08 05:27:47;;;;;;;4.90;0.70;;;4.40;99.90;;;;;;6251465;22;20040;-90
2022/01/08 05:30:16;;;;;;;1.63;0.50;;;4.50;99.90;;;;;;6251235;22;20027;-89
2022/01/08 05:32:43;;;;;;;6.50;0.70;;;4.50;99.90;;;;;;6251609;22;20099;-89
2022/01/08 05:35:11;;;;;;;3.47;0.63;;;4.50;99.90;;;;;;6278566;22;20351;-87
2022/01/08 05:37:38;;;;;;;4.40;0.60;;;4.50;99.90;;;;;;6251322;22;20020;-89
2022/01/08 05:40:05;;;;;;;2.05;0.63;;;4.60;99.90;;;;;;6251777;22;20431;-87
2022/01/08 05:42:32;;;;;;;1.95;1.13;;;4.60;99.90;;;;;;6250867;22;20023;-89
2022/01/08 05:44:59;;;;;;;5.82;0.95;;;4.50;99.90;;;;;;6225938;22;20095;-89
2022/01/08 05:47:33;;;;;;;4.30;1.02;;;4.50;99.90;;;;;;6226960;22;20027;-89
2022/01/08 05:50:01;;;;;;;4.15;0.68;;;4.50;99.90;;;;;;6278269;22;20047;-87
2022/01/08 05:52:28;;;;;;;4.22;1.00;;;4.50;99.90;;;;;;6225993;22;20020;-87
2022/01/08 05:54:55;;;;;;;4.38;0.70;;;4.50;99.90;;;;;;6251333;22;20083;-88
2022/01/08 05:57:22;;;;;;;2.67;0.73;;;4.50;99.90;;;;;;6251208;22;20095;-89
2022/01/08 05:59:48;;;;;;;2.58;0.60;;;4.50;99.90;;;;;;6251154;22;20023;-88
2022/01/08 06:02:15;;;;;;;7.20;0.68;;;4.50;99.90;;;;;;6278229;22;20019;-87
2022/01/08 06:04:43;;;;;;;2.55;0.47;;;4.40;99.90;;;;;;6251324;22;20023;-90
2022/01/08 06:07:10;;;;;;;6.20;0.98;;;4.50;99.90;;;;;;6277609;22;20078;-89
2022/01/08 06:09:37;;;;;;;10.35;1.30;;;4.50;99.90;;;;;;6225662;22;20443;-89
2022/01/08 06:12:04;;;;;;;2.35;0.77;;;4.50;99.90;;;;;;6251092;22;20343;-89
2022/01/08 06:14:31;;;;;;;6.22;1.02;;;4.50;99.90;;;;;;6251244;22;20016;-88
2022/01/08 06:16:58;;;;;;;8.05;0.55;;;4.40;99.90;;;;;;6277791;22;20087;-89
2022/01/08 06:19:25;;;;;;;6.53;1.17;;;4.50;99.90;;;;;;6278022;22;20019;-88
2022/01/08 06:21:52;;;;;;;6.30;1.10;;;4.40;99.90;;;;;;6278001;22;20019;-90
2022/01/08 06:24:19;;;;;;;1.95;0.22;;;4.40;99.90;;;;;;6277713;22;20384;-87
2022/01/08 06:26:46;;;;;;;4.07;0.47;;;4.50;99.90;;;;;;6225711;22;20015;-87
2022/01/08 06:29:13;;;;;;;3.35;0.35;;;4.40;99.90;;;;;;6250495;22;20098;-88
2022/01/08 06:31:40;;;;;;;2.25;0.80;;;4.50;99.90;;;;;;6277797;22;20320;-90
2022/01/08 06:34:07;;;;;;;5.18;1.05;;;4.50;99.90;;;;;;6278410;22;20050;-89
2022/01/08 06:36:33;;;;;;;1.55;0.55;;;4.50;99.90;;;;;;6250810;22;20046;-88
2022/01/08 06:39:00;;;;;;;8.02;0.80;;;4.50;99.90;;;;;;6225081;22;20042;-88
2022/01/08 06:41:29;;;;;;;2.20;0.98;;;4.50;99.90;;;;;;6250816;22;20404;-89
2022/01/08 06:43:57;;;;;;;5.75;0.70;;;4.50;99.90;;;;;;6250699;22;20019;-88
2022/01/08 06:46:24;;;;;;;7.97;1.02;;;4.50;99.90;;;;;;6250254;22;20026;-88
2022/01/08 06:48:51;;;;;;;12.32;1.90;;;4.60;99.90;;;;;;6250787;22;20018;-90
2022/01/08 06:51:18;;;;;;;5.15;1.00;;;4.60;99.90;;;;;;6250559;22;20027;-88
2022/01/08 06:53:45;;;;;;;5.50;1.00;;;4.60;99.90;;;;;;6250444;22;20340;-89
2022/01/08 06:56:12;;;;;;;7.72;0.93;;;4.60;99.90;;;;;;6278145;22;20012;-90
2022/01/08 06:58:41;;;;;;;6.53;0.93;;;4.60;99.90;;;;;;6225216;22;20106;-88
2022/01/08 07:01:08;;;;;;;4.15;1.55;;;4.60;99.90;;;;;;6250414;22;20022;-89
2022/01/08 07:03:36;;;;;;;4.05;0.85;;;4.60;99.90;;;;;;6250812;22;20450;-88
2022/01/08 07:06:03;;;;;;;4.63;1.48;;;4.60;99.90;;;;;;6250301;22;20027;-87
2022/01/08 07:08:30;;;;;;;7.93;0.93;;;4.60;99.90;;;;;;6224618;22;20019;-88
2022/01/08 07:10:57;;;;;;;0.90;0.60;;;4.60;99.90;;;;;;6225442;22;20012;-89
2022/01/08 07:13:24;;;;;;;5.10;0.82;;;4.60;99.90;;;;;;6277899;22;20039;-88
2022/01/08 07:15:51;;;;;;;3.60;0.80;;;4.60;99.90;;;;;;6250205;22;20023;-88
2022/01/08 07:18:18;;;;;;;4.13;0.88;;;4.60;99.90;;;;;;6250262;22;20107;-89
2022/01/08 07:20:45;;;;;;;4.07;0.73;;;4.60;99.90;;;;;;6225150;22;20027;-90
2022/01/08 07:23:12;;;;;;;7.13;2.35;;;4.60;99.90;;;;;;6277330;22;20012;-87
2022/01/08 07:25:38;;;;;;;6.00;1.20;;;4.60;99.90;;;;;;6250385;22;20016;-88
2022/01/08 07:28:06;;;;;;;5.47;0.80;;;4.60;99.90;;;;;;6250074;22;20022;-88
2022/01/08 07:30:33;;;;;;;5.95;0.88;;;4.60;99.90;;;;;;6250452;22;20159;-89
2022/01/08 07:32:59;;;;;;;2.55;0.70;;;4.60;99.90;;;;;;6250377;22;20022;-89
2022/01/08 07:35:27;;;;;;;5.80;0.77;;;4.60;99.90;;;;;;6276767;22;20016;-88
2022/01/08 07:37:53;;;;;;;3.88;0.98;;;4.60;99.90;;;;;;6277281;22;20043;-90
2022/01/08 07:40:21;;;;;;;5.65;0.57;;;4.60;99.90;;;;;;6250174;22;20022;-89
2022/01/08 07:42:50;;;;;;;5.13;0.70;;;4.60;99.90;;;;;;6223702;22;20019;-90
2022/01/08 07:45:19;;;;;;;11.70;1.50;;;4.60;99.90;;;;;;6245954;22;20497;-88
2022/01/08 07:47:48;;;;;;;10.23;1.40;;;4.60;99.90;;;;;;6271136;22;20338;-89
2022/01/08 07:50:16;;;;;;;6.00;1.38;;;4.60;99.90;;;;;;6272429;22;20435;-89
2022/01/08 07:52:44;;;;;;;3.35;0.52;;;4.60;99.90;;;;;;6272523;22;20015;-90
2022/01/08 07:55:12;;;;;;;2.13;1.13;;;4.60;99.90;;;;;;6276838;22;20091;-90
2022/01/08 07:57:39;;;;;;;4.72;0.98;;;4.60;99.90;;;;;;6249709;22;20020;-88
2022/01/08 08:00:07;;;;;;;2.40;1.00;;;4.60;99.90;;;;;;6250316;22;20039;-89
2022/01/08 08:02:40;;;;;;;3.20;1.30;;;4.60;99.90;;;;;;6249774;22;20020;-89
2022/01/08 08:05:08;;;;;;;4.55;1.15;;;4.60;99.90;;;;;;6224844;22;20486;-90
2022/01/08 08:07:38;;;;;;;6.32;0.98;;;4.70;99.90;;;;;;6276117;22;20011;-89
2022/01/08 08:10:08;;;;;;;7.13;0.85;;;4.70;99.90;;;;;;6271132;22;20019;-89
2022/01/08 08:12:36;;;;;;;10.02;1.55;;;4.60;99.90;;;;;;6243720;22;20015;-87
2022/01/08 08:15:05;;;;;;;8.75;1.10;;;4.70;99.90;;;;;;6219248;22;20030;-88
2022/01/08 08:17:33;;;;;;;3.42;0.73;;;4.60;99.90;;;;;;6218810;22;20107;-90
2022/01/08 08:20:01;;;;;;;4.57;0.90;;;4.70;99.90;;;;;;6218682;22;20016;-90
2022/01/08 08:22:28;;;;;;;9.30;0.80;;;4.70;99.90;;;;;;6273313;22;20090;-88
2022/01/08 08:24:55;;;;;;;10.80;0.98;;;4.70;99.90;;;;;;6276512;22;20020;-87
2022/01/08 08:27:21;;;;;;;5.05;0.77;;;4.70;99.90;;;;;;6276348;22;20069;-88
2022/01/08 08:29:48;;;;;;;11.00;0.80;;;4.70;99.90;;;;;;6276729;22;20016;-89
2022/01/08 08:32:15;;;;;;;3.80;0.70;;;4.70;99.90;;;;;;6276486;22;20431;-88
2022/01/08 08:34:42;;;;;;;4.82;0.85;;;4.70;99.90;;;;;;6250017;22;20016;-89
2022/01/08 08:37:10;;;;;;;4.90;0.75;;;4.70;99.90;;;;;;6224487;22;20059;-87
2022/01/08 08:39:37;;;;;;;1.38;0.60;;;4.80;99.90;;;;;;6224370;22;20115;-87
2022/01/08 08:42:04;;;;;;;3.17;0.73;;;4.70;99.90;;;;;;6250430;22;20506;-87
2022/01/08 08:44:31;;;;;;;5.32;0.98;;;4.80;99.90;;;;;;6277042;22;20024;-88
2022/01/08 08:46:58;;;;;;;4.80;0.82;;;4.70;99.90;;;;;;6249368;22;20347;-89
2022/01/08 08:49:26;;;;;;;2.60;1.20;;;4.80;99.90;;;;;;6250308;22;20020;-88
2022/01/08 08:51:54;;;;;;;8.05;1.33;;;4.80;99.90;;;;;;6276623;22;20015;-90
2022/01/08 08:54:21;;;;;;;8.93;1.30;;;4.80;99.90;;;;;;6276662;22;20014;-89
2022/01/08 08:56:48;;;;;;;6.63;0.88;;;4.80;99.90;;;;;;6249468;22;20103;-88
2022/01/08 08:59:15;;;;;;;4.28;0.88;;;4.80;99.90;;;;;;6276681;22;20020;-89
2022/01/08 09:01:42;;;;;;;7.50;1.23;;;4.80;99.90;;;;;;6249979;22;20016;-89
2022/01/08 09:04:09;;;;;;;4.82;1.15;;;4.80;99.90;;;;;;6224544;22;20473;-89
2022/01/08 09:06:36;;;;;;;3.20;0.65;;;4.90;99.90;;;;;;6276599;22;20022;-87
2022/01/08 09:09:03;;;;;;;5.13;0.77;;;4.80;99.90;;;;;;6249326;22;20413;-88
2022/01/08 09:11:30;;;;;;;6.53;1.13;;;4.90;99.90;;;;;;6224858;22;20454;-88
2022/01/08 09:13:57;;;;;;;8.60;1.30;;;4.90;99.90;;;;;;6249663;22;20392;-87
2022/01/08 09:16:27;;;;;;;9.50;0.77;;;4.90;99.90;;;;;;6277425;22;20037;-89
2022/01/08 09:18:54;;;;;;;2.15;0.65;;;4.90;99.90;;;;;;6249766;22;20016;-87
2022/01/08 09:21:21;;;;;;;2.58;0.63;;;4.90;99.90;;;;;;6249511;22;20442;-91
2022/01/08 09:23:48;;;;;;;10.57;0.88;;;4.90;99.90;;;;;;6276617;22;20032;-89
2022/01/08 09:26:15;;;;;;;4.07;0.85;;;4.90;99.90;;;;;;6224340;22;20110;-88
2022/01/08 09:28:42;;;;;;;6.50;1.02;;;4.90;99.90;;;;;;6276271;22;20363;-89
2022/01/08 09:31:09;;;;;;;5.50;1.27;;;5.00;99.90;;;;;;6224545;22;20111;-90
2022/01/08 09:33:37;;;;;;;7.10;0.85;;;5.00;99.90;;;;;;6251669;22;20022;-87
2022/01/08 09:36:05;;;;;;;4.60;0.68;;;5.00;99.90;;;;;;6251677;22;20110;-87
2022/01/08 09:38:32;;;;;;;3.60;1.38;;;5.10;99.90;;;;;;6251223;22;20023;-88
2022/01/08 09:40:59;;;;;;;7.18;1.02;;;5.10;99.90;;;;;;6278226;22;20381;-88
2022/01/08 09:43:26;;;;;;;1.55;0.73;;;5.10;99.90;;;;;;6251237;22;20451;-89
2022/01/08 09:45:53;;;;;;;6.22;0.60;;;5.10;99.90;;;;;;6278250;22;20102;-90
2022/01/08 09:48:20;;;;;;;1.60;0.68;;;5.10;99.90;;;;;;6250256;22;20012;-89
2022/01/08 09:50:47;;;;;;;5.85;0.75;;;5.20;99.90;;;;;;6278040;22;20382;-88
2022/01/08 09:53:14;;;;;;;2.35;1.05;;;5.20;99.90;;;;;;6278174;22;20018;-89
2022/01/08 09:55:41;;;;;;;4.65;1.17;;;5.20;99.90;;;;;;6225931;22;20035;-88
2022/01/08 09:58:09;;;;;;;6.15;0.55;;;5.30;99.90;;;;;;6250621;22;20103;-87
2022/01/08 10:00:37;;;;;;;2.65;0.60;;;5.30;99.90;;;;;;6278405;22;20020;-88
2022/01/08 10:03:20;;;;;;;2.38;0.65;;;5.30;99.90;;;;;;6251581;22;20090;-88
2022/01/08 10:05:50;;;;;;;5.85;0.82;;;5.30;99.90;;;;;;6278518;22;20015;-89
2022/01/08 10:08:42;;;;;;;6.15;1.58;;;5.30;99.90;;;;;;6255068;22;20012;-89
2022/01/08 10:11:09;;;;;;;12.35;1.60;;;5.40;99.90;;;;;;6251682;22;20043;-89
2022/01/08 10:13:40;;;;;;;9.40;0.93;;;5.40;99.90;;;;;;6277976;22;20026;-87
2022/01/08 10:19:04;;;;;;;8.38;1.27;;;5.40;99.90;;;;;;6277585;22;20351;-90
2022/01/08 10:21:34;;;;;;;8.85;1.08;;;5.50;99.90;;;;;;6251264;22;20034;-87
2022/01/08 10:24:08;;;;;;;9.65;1.17;;;5.50;99.90;;;;;;6251196;22;20099;-88
2022/01/08 10:26:40;;;;;;;7.05;1.05;;;5.50;99.90;;;;;;6250780;22;20055;-89
2022/01/08 10:29:12;;;;;;;6.28;0.90;;;5.50;99.90;;;;;;6277752;22;20015;-89
2022/01/08 10:31:48;;;;;;;8.88;0.90;;;5.50;99.90;;;;;;6250327;22;20073;-89
2022/01/08 10:34:17;;;;;;;8.90;1.08;;;5.60;99.90;;;;;;6277712;22;20015;-91
2022/01/08 10:36:56;;;;;;;4.20;1.17;;;5.50;99.90;;;;;;6277875;22;20324;-88
2022/01/08 10:39:34;;;;;;;3.22;0.80;;;5.50;99.90;;;;;;6277533;22;20439;-88
2022/01/08 10:42:11;;;;;;;6.72;1.50;;;5.50;99.90;;;;;;6250718;22;20055;-89
2022/01/08 10:44:39;;;;;;;9.60;1.67;;;5.50;99.90;;;;;;6250402;22;20023;-90
2022/01/08 10:47:12;;;;;;;6.32;1.48;;;5.50;99.90;;;;;;6250348;22;20050;-88
2022/01/08 10:49:42;;;;;;;7.22;0.98;;;5.40;99.90;;;;;;6277594;22;20018;-90
2022/01/08 10:52:15;;;;;;;5.13;1.63;;;5.40;99.90;;;;;;6250289;22;20027;-89
2022/01/08 10:54:48;;;;;;;8.73;1.77;;;5.40;99.90;;;;;;6251823;22;20012;-90
2022/01/08 10:57:15;;;;;;;10.45;2.17;;;5.40;99.90;;;;;;6277254;22;20024;-87
2022/01/08 10:59:43;;;;;;;5.82;1.27;;;5.40;99.90;;;;;;6277500;22;20092;-88
2022/01/08 11:02:14;;;;;;;4.50;1.67;;;5.40;99.90;;;;;;6277905;22;20026;-90
2022/01/08 11:04:52;;;;;;;9.02;1.20;;;5.40;99.90;;;;;;6250725;22;20023;-91
2022/01/08 11:07:22;;;;;;;6.57;1.90;;;5.40;99.90;;;;;;6277432;22;20019;-90
2022/01/08 11:09:54;;;;;;;5.65;1.58;;;5.30;99.90;;;;;;6278067;22;20012;-87
2022/01/08 11:12:33;;;;;;;5.00;1.70;;;5.20;99.90;;;;;;6277395;22;20011;-90
2022/01/08 11:17:50;;;;;;;3.38;1.70;;;5.10;99.90;;;;;;6250224;22;20047;-89
2022/01/08 11:20:36;;;;;;;6.47;1.88;;;5.10;99.90;;;;;;6229081;22;20016;-90
2022/01/08 11:23:03;;;;;;;8.88;2.10;;;5.00;99.90;;;;;;6250138;22;20016;-87
2022/01/08 11:25:34;;;;;;;4.90;1.42;;;4.90;99.90;;;;;;6277543;22;20069;-87
2022/01/08 11:28:05;;;;;;;9.45;1.98;;;5.00;99.90;;;;;;6277197;22;20016;-89
2022/01/08 11:30:35;;;;;;;8.35;1.95;;;4.90;99.90;;;;;;6249931;22;20022;-90
2022/01/08 11:33:14;;;;;;;11.27;2.20;;;4.80;99.90;;;;;;6276917;22;20341;-89
2022/01/08 11:35:43;;;;;;;4.15;1.75;;;4.80;99.90;;;;;;6250873;22;20022;-87
2022/01/08 11:38:12;;;;;;;9.00;2.83;;;4.90;99.90;;;;;;6224636;22;20012;-86
2022/01/08 11:40:41;;;;;;;6.65;1.85;;;4.90;99.90;;;;;;6250618;22;20031;-88
2022/01/08 11:43:14;;;;;;;6.15;2.40;;;4.90;99.90;;;;;;6224395;22;20413;-90
2022/01/08 11:45:53;;;;;;;4.35;2.25;;;4.80;99.90;;;;;;6250518;22;20027;-88
2022/01/08 11:48:32;;;;;;;8.05;2.70;;;4.80;99.90;;;;;;6249996;22;20022;-86
2022/01/08 11:51:01;;;;;;;12.23;3.85;;;4.80;99.90;;;;;;6277315;22;20435;-89
2022/01/08 11:53:32;;;;;;;8.55;2.55;;;4.80;99.90;;;;;;6276822;22;20022;-88
2022/01/08 11:56:05;;;;;;;6.43;2.50;;;4.80;99.90;;;;;;6250547;22;20095;-89
2022/01/08 11:58:34;;;;;;;4.65;2.35;;;4.80;99.90;;;;;;6276967;22;20081;-89
2022/01/08 12:01:12;;;;;;;3.65;2.70;;;4.80;99.90;;;;;;6277393;22;20431;-90
2022/01/08 12:03:47;;;;;;;7.07;2.72;;;4.70;99.90;;;;;;6277388;22;20019;-88
2022/01/08 12:06:21;;;;;;;4.97;2.13;;;4.60;99.90;;;;;;6250384;22;20439;-90
2022/01/08 12:09:20;;;;;;;9.50;2.92;;;4.70;99.90;;;;;;6250031;22;20043;-88
2022/01/08 12:11:50;;;;;;;4.60;3.00;;;4.60;99.90;;;;;;6276740;22;20019;-90
2022/01/08 12:14:26;;;;;;;6.68;3.13;;;4.70;99.90;;;;;;6276933;22;20012;-87
2022/01/08 12:17:12;;;;;;;8.77;3.35;;;4.60;99.90;;;;;;6248927;22;20055;-90
2022/01/08 12:19:53;;;;;;;9.07;3.05;;;4.70;99.90;;;;;;6249896;22;20023;-89
2022/01/08 12:22:20;;;;;;;6.50;3.25;;;4.60;99.90;;;;;;6276894;22;20081;-90
2022/01/08 12:24:52;;;;;;;6.18;2.97;;;4.50;99.90;;;;;;6250446;22;20118;-88
2022/01/08 12:27:40;;;;;;;7.38;3.13;;;4.60;99.90;;;;;;6224515;22;20077;-88
2022/01/08 12:30:22;;;;;;;5.97;3.20;;;4.50;99.90;;;;;;6276734;22;20016;-88
2022/01/08 12:33:13;;;;;;;5.38;3.42;;;4.50;99.90;;;;;;6249512;22;20797;-88
2022/01/08 12:35:40;;;;;;;9.40;3.10;;;4.50;99.90;;;;;;6249254;22;20427;-88
2022/01/08 12:38:23;;;;;;;8.02;3.72;;;4.50;99.90;;;;;;6276572;22;20016;-90
2022/01/08 12:40:50;;;;;;;10.30;3.72;;;4.50;99.90;;;;;;6276807;22;20066;-89
2022/01/08 12:43:30;;;;;;;8.52;4.20;;;4.50;99.90;;;;;;6250605;22;20043;-87
2022/01/08 12:46:17;;;;;;;11.57;5.72;;;4.40;99.90;;;;;;6249994;22;20038;-89
2022/01/08 12:49:17;;;;;;;5.32;2.83;;;4.40;99.90;;;;;;6249125;22;20070;-88
2022/01/08 12:52:04;;;;;;;4.10;3.03;;;4.60;99.90;;;;;;6168155;22;20049;-87
2022/01/08 12:54:32;;;;;;;7.80;4.38;;;4.60;99.90;;;;;;6276907;22;20091;-90
2022/01/08 12:57:04;;;;;;;9.32;4.47;;;4.40;99.90;;;;;;6249442;22;20043;-89
2022/01/08 12:59:39;;;;;;;6.05;3.35;;;4.50;99.90;;;;;;6249515;22;20394;-87
2022/01/08 13:02:08;;;;;;;9.48;3.63;;;4.60;99.90;;;;;;6276434;22;20020;-89
2022/01/08 13:04:35;;;;;;;6.78;3.42;;;4.60;99.90;;;;;;6276670;22;20016;-89
2022/01/08 13:07:03;;;;;;;9.90;3.13;;;4.60;99.90;;;;;;6250938;22;20026;-90
2022/01/08 13:09:30;;;;;;;5.30;2.97;;;4.60;99.90;;;;;;6251602;22;20435;-88
2022/01/08 13:11:57;;;;;;;5.97;2.97;;;4.50;99.90;;;;;;6278517;22;20043;-88
2022/01/08 13:14:29;;;;;;;8.70;3.28;;;4.60;99.90;;;;;;6278576;22;20343;-89
2022/01/08 13:16:57;;;;;;;6.00;3.42;;;4.50;99.90;;;;;;6251531;22;20022;-87
2022/01/08 13:19:27;;;;;;;9.70;3.28;;;4.40;99.90;;;;;;6251848;22;20332;-90
2022/01/08 13:22:02;;;;;;;13.05;3.75;;;4.50;99.90;;;;;;6251552;22;20043;-90
2022/01/08 13:24:35;;;;;;;12.35;4.82;;;4.50;99.90;;;;;;6251251;22;20046;-86
2022/01/08 13:27:11;;;;;;;10.70;5.43;;;4.40;99.90;;;;;;6278477;22;20030;-88
2022/01/08 13:29:40;;;;;;;10.25;4.35;;;4.50;99.90;;;;;;6278476;22;20308;-91
2022/01/08 13:32:08;;;;;;;9.63;5.57;;;4.50;99.90;;;;;;6278466;22;20090;-88
2022/01/08 13:34:47;;;;;;;9.10;4.40;;;4.50;99.90;;;;;;6251725;22;20163;-87
2022/01/08 13:37:23;;;;;;;11.02;6.25;;;4.40;99.90;;;;;;6251595;22;20019;-89